sensor_id;sensor_type;location;lat;lon;timestamp;pressure;altitude;pressure_sealevel;temperature;humidity
68145;BME280;55400;51.824;-0.196;2023-04-01T00:03:44;98832.97;;;10.18;79.46
68145;BME280;55400;51.824;-0.196;2023-04-01T00:07:44;98852.51;;;10.14;79.60
68145;BME280;55400;51.824;-0.196;2023-04-01T00:11:44;98848.81;;;10.13;79.63
68145;BME280;55400;51.824;-0.196;2023-04-01T00:15:44;98848.81;;;10.17;79.63
68145;BME280;55400;51.824;-0.196;2023-04-01T00:19:44;98865.54;;;10.16;78.96
68145;BME280;55400;51.824;-0.196;2023-04-01T00:23:44;98865.54;;;10.12;79.32
68145;BME280;55400;51.824;-0.196;2023-04-01T00:27:44;98867.52;;;10.05;78.85
68145;BME280;55400;51.824;-0.196;2023-04-01T00:31:44;98878.09;;;10.01;78.17
68145;BME280;55400;51.824;-0.196;2023-04-01T00:35:44;98878.09;;;9.97;78.58
68145;BME280;55400;51.824;-0.196;2023-04-01T00:39:44;98884.45;;;9.99;78.59
68145;BME280;55400;51.824;-0.196;2023-04-01T00:43:45;98889.53;;;9.97;78.41
68145;BME280;55400;51.824;-0.196;2023-04-01T00:47:44;98889.53;;;9.93;78.11
68145;BME280;55400;51.824;-0.196;2023-04-01T00:51:44;98895.01000000001;;;9.78;78.63
68145;BME280;55400;51.824;-0.196;2023-04-01T00:55:46;98903.14;;;9.80;77.98
68145;BME280;55400;51.824;-0.196;2023-04-01T00:59:45;98903.14;;;9.79;78.48
68145;BME280;55400;51.824;-0.196;2023-04-01T01:03:44;98914.06;;;9.81;78.27
68145;BME280;55400;51.824;-0.196;2023-04-01T01:11:48;98917.1;;;9.78;78.51
68145;BME280;55400;51.824;-0.196;2023-04-01T01:15:45;98928.68999999999;;;9.71;78.76
68145;BME280;55400;51.824;-0.196;2023-04-01T01:19:49;98928.68999999999;;;9.66;78.76
68145;BME280;55400;51.824;-0.196;2023-04-01T01:23:49;98932.93;;;9.65;78.96
68145;BME280;55400;51.824;-0.196;2023-04-01T01:27:46;98938.4;;;9.70;79.24
68145;BME280;55400;51.824;-0.196;2023-04-01T01:31:45;98938.4;;;9.73;78.94
68145;BME280;55400;51.824;-0.196;2023-04-01T01:35:45;98945.03;;;9.74;78.85
68145;BME280;55400;51.824;-0.196;2023-04-01T01:39:53;98955.19;;;9.77;78.60
68145;BME280;55400;51.824;-0.196;2023-04-01T01:43:46;98955.19;;;9.74;78.70
68145;BME280;55400;51.824;-0.196;2023-04-01T01:47:44;98967.52;;;9.69;78.31
68145;BME280;55400;51.824;-0.196;2023-04-01T01:51:44;98967.52;;;9.65;78.31
68145;BME280;55400;51.824;-0.196;2023-04-01T01:55:45;98973.24;;;9.66;78.62
68145;BME280;55400;51.824;-0.196;2023-04-01T01:59:44;98973.24;;;9.64;78.41
68145;BME280;55400;51.824;-0.196;2023-04-01T02:03:44;98990.59;;;9.62;78.76
68145;BME280;55400;51.824;-0.196;2023-04-01T02:07:46;98999.65;;;9.60;79.22
68145;BME280;55400;51.824;-0.196;2023-04-01T02:11:45;99005.98;;;9.53;79.22
68145;BME280;55400;51.824;-0.196;2023-04-01T02:15:45;99009.17;;;9.55;79.41
68145;BME280;55400;51.824;-0.196;2023-04-01T02:19:46;99012.59;;;9.50;79.41
68145;BME280;55400;51.824;-0.196;2023-04-01T02:23:44;99014.59;;;9.55;79.50
68145;BME280;55400;51.824;-0.196;2023-04-01T02:31:45;99018.84999999999;;;9.57;79.33
68145;BME280;55400;51.824;-0.196;2023-04-01T02:35:44;99027.04;;;9.58;79.33
68145;BME280;55400;51.824;-0.196;2023-04-01T02:39:45;99027.04;;;9.60;79.29
68145;BME280;55400;51.824;-0.196;2023-04-01T02:43:44;99032.46;;;9.56;79.34
68145;BME280;55400;51.824;-0.196;2023-04-01T02:47:45;99030.61;;;9.50;78.98
68145;BME280;55400;51.824;-0.196;2023-04-01T02:51:44;99030.61;;;9.43;79.01
68145;BME280;55400;51.824;-0.196;2023-04-01T02:55:44;99035.99;;;9.37;79.34
68145;BME280;55400;51.824;-0.196;2023-04-01T02:59:45;99048.99;;;9.35;79.34
68145;BME280;55400;51.824;-0.196;2023-04-01T03:03:44;99048.99;;;9.33;79.34
68145;BME280;55400;51.824;-0.196;2023-04-01T03:07:45;99054.66;;;9.29;79.15
68145;BME280;55400;51.824;-0.196;2023-04-01T03:15:45;99057.12;;;9.32;79.15
68145;BME280;55400;51.824;-0.196;2023-04-01T03:19:45;99065.28;;;9.36;79.23
68145;BME280;55400;51.824;-0.196;2023-04-01T03:23:45;99070.45000000001;;;9.42;79.18
68145;BME280;55400;51.824;-0.196;2023-04-01T03:31:45;99074.47;;;9.44;78.95
68145;BME280;55400;51.824;-0.196;2023-04-01T03:35:45;99074.47;;;9.47;78.35
68145;BME280;55400;51.824;-0.196;2023-04-01T03:39:44;99084.36;;;9.48;78.40
68145;BME280;55400;51.824;-0.196;2023-04-01T03:47:45;99083.48999999999;;;9.45;78.06
68145;BME280;55400;51.824;-0.196;2023-04-01T03:51:45;99086.87999999999;;;9.37;78.18
68145;BME280;55400;51.824;-0.196;2023-04-01T03:55:45;99086.87999999999;;;9.32;77.75
68145;BME280;55400;51.824;-0.196;2023-04-01T03:59:45;99093.98;;;9.30;77.61
68145;BME280;55400;51.824;-0.196;2023-04-01T04:03:45;99099.91;;;9.25;78.11
68145;BME280;55400;51.824;-0.196;2023-04-01T04:07:45;99097.58;;;9.28;78.28
68145;BME280;55400;51.824;-0.196;2023-04-01T04:15:45;99125.55;;;9.34;77.77
68145;BME280;55400;51.824;-0.196;2023-04-01T04:19:45;99127.26;;;9.36;77.96
68145;BME280;55400;51.824;-0.196;2023-04-01T04:23:45;99137.98000000001;;;9.33;77.64
68145;BME280;55400;51.824;-0.196;2023-04-01T04:27:45;99137.98000000001;;;9.29;77.33
68145;BME280;55400;51.824;-0.196;2023-04-01T04:31:45;99140.12;;;9.28;77.91
68145;BME280;55400;51.824;-0.196;2023-04-01T04:35:45;99149.1;;;9.23;77.76
68145;BME280;55400;51.824;-0.196;2023-04-01T04:39:45;99146.34;;;9.09;77.79
68145;BME280;55400;51.824;-0.196;2023-04-01T04:43:48;99155.26;;;9.04;77.79
68145;BME280;55400;51.824;-0.196;2023-04-01T04:47:45;99169.02;;;9.06;78.57
68145;BME280;55400;51.824;-0.196;2023-04-01T04:51:45;99168.26999999999;;;9.03;78.57
68145;BME280;55400;51.824;-0.196;2023-04-01T04:55:45;99171.5;;;9.00;78.33
68145;BME280;55400;51.824;-0.196;2023-04-01T04:59:45;99176.01;;;8.97;78.36
68145;BME280;55400;51.824;-0.196;2023-04-01T05:03:45;99176.86;;;8.94;78.54
68145;BME280;55400;51.824;-0.196;2023-04-01T05:07:45;99176.86;;;8.92;78.42
68145;BME280;55400;51.824;-0.196;2023-04-01T05:11:45;99180.84999999999;;;8.86;78.52
68145;BME280;55400;51.824;-0.196;2023-04-01T05:15:45;99187.15999999999;;;8.85;78.69
68145;BME280;55400;51.824;-0.196;2023-04-01T05:19:45;99196.01;;;8.77;78.71
68145;BME280;55400;51.824;-0.196;2023-04-01T05:23:45;99207.86;;;8.82;78.85
68145;BME280;55400;51.824;-0.196;2023-04-01T05:27:45;99212.31;;;8.88;78.65
68145;BME280;55400;51.824;-0.196;2023-04-01T05:31:45;99216.99;;;8.91;78.49
68145;BME280;55400;51.824;-0.196;2023-04-01T05:35:45;99216.99;;;8.92;78.09
68145;BME280;55400;51.824;-0.196;2023-04-01T05:39:45;99226.84000000001;;;8.95;78.23
68145;BME280;55400;51.824;-0.196;2023-04-01T05:43:45;99226.84000000001;;;8.96;77.93
68145;BME280;55400;51.824;-0.196;2023-04-01T05:51:45;99247.29999999999;;;8.95;77.71
68145;BME280;55400;51.824;-0.196;2023-04-01T05:55:45;99252.09;;;8.99;77.53
68145;BME280;55400;51.824;-0.196;2023-04-01T05:59:45;99259.22;;;9.00;77.53
68145;BME280;55400;51.824;-0.196;2023-04-01T06:03:45;99259.22;;;8.94;77.34
68145;BME280;55400;51.824;-0.196;2023-04-01T06:07:45;99265.52;;;8.93;77.35
68145;BME280;55400;51.824;-0.196;2023-04-01T06:15:47;99277.84;;;8.94;77.72
68145;BME280;55400;51.824;-0.196;2023-04-01T06:19:47;99278.49;;;8.98;77.56
68145;BME280;55400;51.824;-0.196;2023-04-01T06:23:48;99285.08;;;8.93;77.56
68145;BME280;55400;51.824;-0.196;2023-04-01T06:27:48;99292.66;;;8.90;77.42
68145;BME280;55400;51.824;-0.196;2023-04-01T06:31:49;99298.24;;;8.83;77.42
68145;BME280;55400;51.824;-0.196;2023-04-01T06:39:49;99305.61;;;8.80;77.41
68145;BME280;55400;51.824;-0.196;2023-04-01T06:43:47;99305.61;;;8.74;77.63
68145;BME280;55400;51.824;-0.196;2023-04-01T06:47:49;99310.69;;;8.71;77.17
68145;BME280;55400;51.824;-0.196;2023-04-01T06:51:47;99310.69;;;8.73;77.17
68145;BME280;55400;51.824;-0.196;2023-04-01T06:55:46;99324.41;;;8.69;77.32
68145;BME280;55400;51.824;-0.196;2023-04-01T06:59:45;99324.41;;;8.64;77.48
68145;BME280;55400;51.824;-0.196;2023-04-01T07:03:47;99332.29;;;8.68;78.09
68145;BME280;55400;51.824;-0.196;2023-04-01T07:07:46;99334.17;;;8.67;78.14
68145;BME280;55400;51.824;-0.196;2023-04-01T07:11:45;99342.26999999999;;;8.74;78.14
68145;BME280;55400;51.824;-0.196;2023-04-01T07:15:48;99348.19;;;8.80;77.85
68145;BME280;55400;51.824;-0.196;2023-04-01T07:19:46;99347.78;;;8.72;77.53
68145;BME280;55400;51.824;-0.196;2023-04-01T07:23:45;99347.78;;;8.75;77.55
68145;BME280;55400;51.824;-0.196;2023-04-01T07:27:45;99356.07;;;8.77;77.43
68145;BME280;55400;51.824;-0.196;2023-04-01T07:35:46;99362.75;;;8.74;77.64
68145;BME280;55400;51.824;-0.196;2023-04-01T07:39:47;99362.75;;;8.79;77.64
68145;BME280;55400;51.824;-0.196;2023-04-01T07:43:49;99366.35;;;8.86;77.49
68145;BME280;55400;51.824;-0.196;2023-04-01T07:47:49;99363.51;;;8.89;77.05
68145;BME280;55400;51.824;-0.196;2023-04-01T07:51:47;99379.28;;;8.99;77.16
68145;BME280;55400;51.824;-0.196;2023-04-01T07:55:46;99379.28;;;9.00;77.16
68145;BME280;55400;51.824;-0.196;2023-04-01T07:59:47;99384.93999999999;;;8.98;77.38
68145;BME280;55400;51.824;-0.196;2023-04-01T08:03:52;99395.25;;;9.00;77.27
68145;BME280;55400;51.824;-0.196;2023-04-01T08:07:47;99406.98999999999;;;8.98;77.22
68145;BME280;55400;51.824;-0.196;2023-04-01T08:15:47;99416.33;;;9.00;77.28
68145;BME280;55400;51.824;-0.196;2023-04-01T08:23:46;99429.16;;;9.01;77.21
68145;BME280;55400;51.824;-0.196;2023-04-01T08:31:47;99437.48000000001;;;9.17;77.72
68145;BME280;55400;51.824;-0.196;2023-04-01T08:35:46;99437.48000000001;;;9.11;77.10
68145;BME280;55400;51.824;-0.196;2023-04-01T08:39:47;99445.06999999999;;;9.13;77.41
68145;BME280;55400;51.824;-0.196;2023-04-01T08:43:51;99445.95000000001;;;9.08;77.32
68145;BME280;55400;51.824;-0.196;2023-04-01T08:47:50;99445.95000000001;;;9.01;77.32
68145;BME280;55400;51.824;-0.196;2023-04-01T08:55:49;99453.94;;;8.94;77.64
68145;BME280;55400;51.824;-0.196;2023-04-01T08:59:56;99462.7;;;8.98;77.75
68145;BME280;55400;51.824;-0.196;2023-04-01T09:03:52;99473.46;;;8.91;77.79
68145;BME280;55400;51.824;-0.196;2023-04-01T09:07:47;99482.92;;;9.02;77.83
68145;BME280;55400;51.824;-0.196;2023-04-01T09:11:52;99479.24;;;9.13;77.42
68145;BME280;55400;51.824;-0.196;2023-04-01T09:15:50;99479.24;;;9.12;77.42
68145;BME280;55400;51.824;-0.196;2023-04-01T09:23:50;99493.34999999999;;;9.16;77.73
68145;BME280;55400;51.824;-0.196;2023-04-01T09:27:48;99508.91;;;9.06;77.48
68145;BME280;55400;51.824;-0.196;2023-04-01T09:35:46;99515.51;;;9.13;77.52
68145;BME280;55400;51.824;-0.196;2023-04-01T09:39:48;99515.91;;;9.20;77.72
68145;BME280;55400;51.824;-0.196;2023-04-01T09:43:50;99519.82;;;9.28;77.37
68145;BME280;55400;51.824;-0.196;2023-04-01T09:47:50;99520.36;;;9.34;77.24
68145;BME280;55400;51.824;-0.196;2023-04-01T09:51:48;99529.54999999999;;;9.31;76.99
68145;BME280;55400;51.824;-0.196;2023-04-01T09:55:54;99536.71;;;9.24;76.93
68145;BME280;55400;51.824;-0.196;2023-04-01T09:59:47;99542.88;;;9.15;77.14
68145;BME280;55400;51.824;-0.196;2023-04-01T10:15:51;99559.39;;;9.19;77.89
68145;BME280;55400;51.824;-0.196;2023-04-01T10:23:50;99580.62;;;9.20;76.74
68145;BME280;55400;51.824;-0.196;2023-04-01T10:27:50;99590.99;;;9.19;77.15
68145;BME280;55400;51.824;-0.196;2023-04-01T10:43:50;99609.67000000001;;;9.42;76.07
68145;BME280;55400;51.824;-0.196;2023-04-01T10:55:53;99626.39;;;9.28;76.41
68145;BME280;55400;51.824;-0.196;2023-04-01T11:03:53;99639.78;;;9.44;76.28
68145;BME280;55400;51.824;-0.196;2023-04-01T11:07:51;99643.64;;;9.57;75.97
68145;BME280;55400;51.824;-0.196;2023-04-01T11:11:48;99657.12;;;9.67;75.40
68145;BME280;55400;51.824;-0.196;2023-04-01T11:19:50;99663.2;;;9.73;74.73
68145;BME280;55400;51.824;-0.196;2023-04-01T11:23:50;99662.90000000001;;;9.77;73.76
68145;BME280;55400;51.824;-0.196;2023-04-01T11:27:51;99662.90000000001;;;9.84;74.36
68145;BME280;55400;51.824;-0.196;2023-04-01T11:31:49;99666.09999999999;;;9.90;73.87
68145;BME280;55400;51.824;-0.196;2023-04-01T11:35:50;99680.38;;;10.05;73.22
68145;BME280;55400;51.824;-0.196;2023-04-01T11:39:50;99680.38;;;10.19;73.22
68145;BME280;55400;51.824;-0.196;2023-04-01T11:43:47;99682.23000000001;;;10.33;72.77
68145;BME280;55400;51.824;-0.196;2023-04-01T11:47:49;99689.86;;;10.44;72.77
68145;BME280;55400;51.824;-0.196;2023-04-01T11:51:51;99689.86;;;10.38;72.53
68145;BME280;55400;51.824;-0.196;2023-04-01T11:55:49;99688.58;;;10.25;72.22
68145;BME280;55400;51.824;-0.196;2023-04-01T11:59:51;99700.14;;;10.24;72.75
68145;BME280;55400;51.824;-0.196;2023-04-01T12:03:50;99716.3;;;10.18;72.69
68145;BME280;55400;51.824;-0.196;2023-04-01T12:07:51;99720.17;;;10.16;72.47
68145;BME280;55400;51.824;-0.196;2023-04-01T12:11:48;99720.17;;;10.12;72.47
68145;BME280;55400;51.824;-0.196;2023-04-01T12:15:52;99724.56;;;10.15;72.63
68145;BME280;55400;51.824;-0.196;2023-04-01T12:19:47;99744.47;;;10.17;72.99
68145;BME280;55400;51.824;-0.196;2023-04-01T12:27:50;99756.34;;;10.10;72.15
68145;BME280;55400;51.824;-0.196;2023-04-01T12:31:47;99756.34;;;10.13;72.15
68145;BME280;55400;51.824;-0.196;2023-04-01T12:35:50;99758.29;;;10.09;72.48
68145;BME280;55400;51.824;-0.196;2023-04-01T12:43:57;99770.61;;;10.06;72.65
68145;BME280;55400;51.824;-0.196;2023-04-01T12:47:52;99774.44;;;10.18;72.21
68145;BME280;55400;51.824;-0.196;2023-04-01T12:55:46;99780.14;;;10.31;71.82
68145;BME280;55400;51.824;-0.196;2023-04-01T13:03:50;99797.85;;;10.29;71.04
68145;BME280;55400;51.824;-0.196;2023-04-01T13:11:50;99796.55;;;10.25;71.63
68145;BME280;55400;51.824;-0.196;2023-04-01T13:15:46;99809.61;;;10.29;71.64
68145;BME280;55400;51.824;-0.196;2023-04-01T13:23:49;99820.98;;;10.37;71.46
68145;BME280;55400;51.824;-0.196;2023-04-01T13:27:47;99823.47;;;10.48;71.05
68145;BME280;55400;51.824;-0.196;2023-04-01T13:31:50;99822.43999999999;;;10.56;71.28
68145;BME280;55400;51.824;-0.196;2023-04-01T13:35:48;99833.78;;;10.66;70.42
68145;BME280;55400;51.824;-0.196;2023-04-01T13:39:51;99834.92;;;10.68;70.35
68145;BME280;55400;51.824;-0.196;2023-04-01T13:43:47;99846.39;;;10.53;70.29
68145;BME280;55400;51.824;-0.196;2023-04-01T13:47:50;99844.08;;;10.54;70.03
68145;BME280;55400;51.824;-0.196;2023-04-01T13:51:56;99844.08;;;10.61;70.07
68145;BME280;55400;51.824;-0.196;2023-04-01T13:55:49;99859.39;;;10.67;69.73
68145;BME280;55400;51.824;-0.196;2023-04-01T13:59:51;99861.64;;;10.65;69.32
68145;BME280;55400;51.824;-0.196;2023-04-01T14:03:57;99861.64;;;10.64;69.32
68145;BME280;55400;51.824;-0.196;2023-04-01T14:07:50;99866.94;;;10.55;68.97
68145;BME280;55400;51.824;-0.196;2023-04-01T14:11:49;99877.26;;;10.56;68.43
68145;BME280;55400;51.824;-0.196;2023-04-01T14:19:50;99890.20000000001;;;10.54;69.25
68145;BME280;55400;51.824;-0.196;2023-04-01T14:23:50;99906.98;;;10.52;69.40
68145;BME280;55400;51.824;-0.196;2023-04-01T14:27:50;99906.94;;;10.53;69.40
68145;BME280;55400;51.824;-0.196;2023-04-01T14:31:48;99910.11;;;10.44;69.59
68145;BME280;55400;51.824;-0.196;2023-04-01T14:35:49;99915.37;;;10.42;69.33
68145;BME280;55400;51.824;-0.196;2023-04-01T14:39:49;99921.88;;;10.40;69.80
68145;BME280;55400;51.824;-0.196;2023-04-01T14:43:50;99921.88;;;10.29;69.80
68145;BME280;55400;51.824;-0.196;2023-04-01T14:47:47;99926.47;;;10.25;69.23
68145;BME280;55400;51.824;-0.196;2023-04-01T14:51:46;99928.36;;;10.29;69.12
68145;BME280;55400;51.824;-0.196;2023-04-01T14:55:48;99941.45999999999;;;10.27;69.98
68145;BME280;55400;51.824;-0.196;2023-04-01T14:59:47;99953.27;;;10.26;69.78
68145;BME280;55400;51.824;-0.196;2023-04-01T15:03:48;99960.23;;;10.22;69.35
68145;BME280;55400;51.824;-0.196;2023-04-01T15:11:48;99964.26;;;10.13;69.75
68145;BME280;55400;51.824;-0.196;2023-04-01T15:15:51;99964.26;;;10.12;69.65
68145;BME280;55400;51.824;-0.196;2023-04-01T15:23:50;99977.98;;;10.14;69.83
68145;BME280;55400;51.824;-0.196;2023-04-01T15:27:47;99982.79;;;10.13;69.90
68145;BME280;55400;51.824;-0.196;2023-04-01T15:31:47;99992.04999999999;;;10.09;69.97
68145;BME280;55400;51.824;-0.196;2023-04-01T15:35:48;99992.04999999999;;;10.04;69.97
68145;BME280;55400;51.824;-0.196;2023-04-01T15:39:50;100006.3;;;10.00;69.65
68145;BME280;55400;51.824;-0.196;2023-04-01T15:43:47;100006.3;;;9.99;70.04
68145;BME280;55400;51.824;-0.196;2023-04-01T15:47:52;100021.26;;;9.96;69.57
68145;BME280;55400;51.824;-0.196;2023-04-01T15:55:47;100034.09;;;9.98;69.49
68145;BME280;55400;51.824;-0.196;2023-04-01T15:59:50;100035.17;;;9.96;69.49
68145;BME280;55400;51.824;-0.196;2023-04-01T16:03:49;100035.17;;;10.03;69.57
68145;BME280;55400;51.824;-0.196;2023-04-01T16:07:48;100045.95000000001;;;10.01;69.21
68145;BME280;55400;51.824;-0.196;2023-04-01T16:11:48;100045.95000000001;;;9.97;69.21
68145;BME280;55400;51.824;-0.196;2023-04-01T16:15:49;100059.12;;;9.96;69.16
68145;BME280;55400;51.824;-0.196;2023-04-01T16:19:49;100059.36;;;9.97;69.16
68145;BME280;55400;51.824;-0.196;2023-04-01T16:23:48;100069.16;;;9.98;69.32
68145;BME280;55400;51.824;-0.196;2023-04-01T16:27:49;100069.16;;;10.00;69.22
68145;BME280;55400;51.824;-0.196;2023-04-01T16:31:48;100075.76000000001;;;10.03;69.03
68145;BME280;55400;51.824;-0.196;2023-04-01T16:35:47;100076.98000000001;;;10.04;68.31
68145;BME280;55400;51.824;-0.196;2023-04-01T16:39:47;100081.20999999999;;;10.03;68.31
68145;BME280;55400;51.824;-0.196;2023-04-01T16:43:48;100084.88;;;9.99;68.59
68145;BME280;55400;51.824;-0.196;2023-04-01T16:47:48;100084.88;;;9.92;68.34
68145;BME280;55400;51.824;-0.196;2023-04-01T16:55:48;100107.0;;;9.91;68.25
68145;BME280;55400;51.824;-0.196;2023-04-01T16:59:47;100107.93;;;9.92;67.96
68145;BME280;55400;51.824;-0.196;2023-04-01T17:03:49;100116.03;;;9.86;67.46
68145;BME280;55400;51.824;-0.196;2023-04-01T17:07:48;100121.73;;;9.88;67.46
68145;BME280;55400;51.824;-0.196;2023-04-01T17:11:48;100127.31;;;9.79;68.08
68145;BME280;55400;51.824;-0.196;2023-04-01T17:15:50;100137.33;;;9.77;68.10
68145;BME280;55400;51.824;-0.196;2023-04-01T17:19:49;100137.33;;;9.75;68.71
68145;BME280;55400;51.824;-0.196;2023-04-01T17:23:48;100154.21;;;9.77;68.90
68145;BME280;55400;51.824;-0.196;2023-04-01T17:27:49;100158.48999999999;;;9.75;68.62
68145;BME280;55400;51.824;-0.196;2023-04-01T17:31:49;100168.05;;;9.79;68.62
68145;BME280;55400;51.824;-0.196;2023-04-01T17:43:48;100182.45;;;9.77;68.20
68145;BME280;55400;51.824;-0.196;2023-04-01T17:47:49;100201.19;;;9.75;68.82
68145;BME280;55400;51.824;-0.196;2023-04-01T17:51:49;100210.94;;;9.71;68.82
68145;BME280;55400;51.824;-0.196;2023-04-01T17:55:51;100210.94;;;9.68;68.83
68145;BME280;55400;51.824;-0.196;2023-04-01T17:59:49;100234.88;;;9.64;69.19
68145;BME280;55400;51.824;-0.196;2023-04-01T18:03:54;100247.86;;;9.62;70.20
68145;BME280;55400;51.824;-0.196;2023-04-01T18:11:50;100265.36;;;9.59;71.61
68145;BME280;55400;51.824;-0.196;2023-04-01T18:15:48;100265.36;;;9.53;72.18
68145;BME280;55400;51.824;-0.196;2023-04-01T18:23:47;100292.21;;;9.42;72.38
68145;BME280;55400;51.824;-0.196;2023-04-01T18:27:48;100290.37;;;9.35;72.93
68145;BME280;55400;51.824;-0.196;2023-04-01T18:31:48;100290.37;;;9.27;73.75
68145;BME280;55400;51.824;-0.196;2023-04-01T18:35:47;100311.15999999999;;;9.23;74.28
68145;BME280;55400;51.824;-0.196;2023-04-01T18:43:51;100325.23;;;9.15;73.69
68145;BME280;55400;51.824;-0.196;2023-04-01T18:47:49;100325.23;;;9.05;74.65
68145;BME280;55400;51.824;-0.196;2023-04-01T18:51:48;100339.56;;;9.04;75.14
68145;BME280;55400;51.824;-0.196;2023-04-01T18:55:47;100351.05;;;8.99;75.37
68145;BME280;55400;51.824;-0.196;2023-04-01T18:59:48;100358.01;;;8.98;75.85
68145;BME280;55400;51.824;-0.196;2023-04-01T19:03:48;100370.61;;;9.02;76.00
68145;BME280;55400;51.824;-0.196;2023-04-01T19:07:48;100375.57;;;9.04;76.02
68145;BME280;55400;51.824;-0.196;2023-04-01T19:11:51;100377.14;;;9.03;75.90
68145;BME280;55400;51.824;-0.196;2023-04-01T19:15:49;100377.14;;;9.02;75.90
68145;BME280;55400;51.824;-0.196;2023-04-01T19:23:51;100401.83;;;9.04;75.94
68145;BME280;55400;51.824;-0.196;2023-04-01T19:27:48;100408.86;;;9.09;76.19
68145;BME280;55400;51.824;-0.196;2023-04-01T19:31:51;100408.86;;;9.11;75.66
68145;BME280;55400;51.824;-0.196;2023-04-01T19:35:49;100423.72;;;9.10;75.74
68145;BME280;55400;51.824;-0.196;2023-04-01T19:39:48;100431.84;;;9.05;75.70
68145;BME280;55400;51.824;-0.196;2023-04-01T19:43:50;100431.84;;;8.92;75.70
68145;BME280;55400;51.824;-0.196;2023-04-01T19:47:50;100446.51;;;8.83;75.27
68145;BME280;55400;51.824;-0.196;2023-04-01T19:51:48;100462.37999999999;;;8.82;75.88
68145;BME280;55400;51.824;-0.196;2023-04-01T19:55:48;100462.37999999999;;;8.74;75.54
68145;BME280;55400;51.824;-0.196;2023-04-01T19:59:48;100468.94;;;8.70;75.77
68145;BME280;55400;51.824;-0.196;2023-04-01T20:03:48;100475.39;;;8.74;76.12
68145;BME280;55400;51.824;-0.196;2023-04-01T20:07:48;100475.39;;;8.72;75.96
68145;BME280;55400;51.824;-0.196;2023-04-01T20:15:54;100487.22;;;8.67;75.64
68145;BME280;55400;51.824;-0.196;2023-04-01T20:19:51;100487.22;;;8.69;75.73
68145;BME280;55400;51.824;-0.196;2023-04-01T20:23:49;100494.69;;;8.65;75.15
68145;BME280;55400;51.824;-0.196;2023-04-01T20:27:49;100494.69;;;8.62;75.14
68145;BME280;55400;51.824;-0.196;2023-04-01T20:31:48;100499.01;;;8.65;75.15
68145;BME280;55400;51.824;-0.196;2023-04-01T20:35:50;100504.88;;;8.64;75.03
68145;BME280;55400;51.824;-0.196;2023-04-01T20:43:51;100534.3;;;8.55;74.71
68145;BME280;55400;51.824;-0.196;2023-04-01T20:47:53;100537.62000000001;;;8.52;74.78
68145;BME280;55400;51.824;-0.196;2023-04-01T20:51:52;100546.38;;;8.46;74.89
68145;BME280;55400;51.824;-0.196;2023-04-01T20:55:55;100546.38;;;8.50;74.54
68145;BME280;55400;51.824;-0.196;2023-04-01T21:03:49;100570.64;;;8.56;74.88
68145;BME280;55400;51.824;-0.196;2023-04-01T21:07:48;100578.73;;;8.54;74.52
68145;BME280;55400;51.824;-0.196;2023-04-01T21:11:50;100586.42;;;8.52;74.63
68145;BME280;55400;51.824;-0.196;2023-04-01T21:15:50;100586.42;;;8.51;74.63
68145;BME280;55400;51.824;-0.196;2023-04-01T21:19:55;100596.95;;;8.50;74.46
68145;BME280;55400;51.824;-0.196;2023-04-01T21:23:51;100609.47;;;8.51;74.39
68145;BME280;55400;51.824;-0.196;2023-04-01T21:27:51;100612.58;;;8.50;74.34
68145;BME280;55400;51.824;-0.196;2023-04-01T21:31:51;100619.7;;;8.48;74.41
68145;BME280;55400;51.824;-0.196;2023-04-01T21:35:50;100618.92;;;8.47;74.41
68145;BME280;55400;51.824;-0.196;2023-04-01T21:39:52;100628.81999999999;;;8.44;73.92
68145;BME280;55400;51.824;-0.196;2023-04-01T21:43:53;100636.78;;;8.45;74.13
68145;BME280;55400;51.824;-0.196;2023-04-01T21:51:54;100644.7;;;8.42;73.83
68145;BME280;55400;51.824;-0.196;2023-04-01T21:55:55;100654.76;;;8.41;73.83
68145;BME280;55400;51.824;-0.196;2023-04-01T22:03:51;100664.83;;;8.37;73.87
68145;BME280;55400;51.824;-0.196;2023-04-01T22:07:50;100665.38;;;8.38;73.71
68145;BME280;55400;51.824;-0.196;2023-04-01T22:11:49;100665.38;;;8.41;73.71
68145;BME280;55400;51.824;-0.196;2023-04-01T22:15:51;100682.75;;;8.34;73.74
68145;BME280;55400;51.824;-0.196;2023-04-01T22:19:49;100689.69;;;8.31;73.74
68145;BME280;55400;51.824;-0.196;2023-04-01T22:23:49;100694.67;;;8.27;73.62
68145;BME280;55400;51.824;-0.196;2023-04-01T22:27:49;100694.61;;;8.24;73.84
68145;BME280;55400;51.824;-0.196;2023-04-01T22:31:49;100700.17;;;8.26;73.84
68145;BME280;55400;51.824;-0.196;2023-04-01T22:35:49;100700.17;;;8.22;73.80
68145;BME280;55400;51.824;-0.196;2023-04-01T22:39:52;100714.15;;;8.19;73.60
68145;BME280;55400;51.824;-0.196;2023-04-01T22:47:49;100727.36;;;8.16;73.88
68145;BME280;55400;51.824;-0.196;2023-04-01T22:51:49;100730.59;;;8.17;73.88
68145;BME280;55400;51.824;-0.196;2023-04-01T22:55:49;100735.02;;;8.21;74.01
68145;BME280;55400;51.824;-0.196;2023-04-01T22:59:48;100739.73;;;8.19;74.01
68145;BME280;55400;51.824;-0.196;2023-04-01T23:03:48;100749.1;;;8.14;73.99
68145;BME280;55400;51.824;-0.196;2023-04-01T23:07:50;100749.1;;;8.13;74.23
68145;BME280;55400;51.824;-0.196;2023-04-01T23:11:49;100754.81;;;8.04;74.46
68145;BME280;55400;51.824;-0.196;2023-04-01T23:15:48;100766.18999999999;;;7.99;74.96
68145;BME280;55400;51.824;-0.196;2023-04-01T23:19:49;100761.55;;;8.02;74.96
68145;BME280;55400;51.824;-0.196;2023-04-01T23:23:50;100775.08;;;7.96;74.76
68145;BME280;55400;51.824;-0.196;2023-04-01T23:27:50;100783.75;;;7.90;74.61
68145;BME280;55400;51.824;-0.196;2023-04-01T23:31:49;100781.67;;;7.93;75.12
68145;BME280;55400;51.824;-0.196;2023-04-01T23:39:48;100795.74;;;7.95;75.47
68145;BME280;55400;51.824;-0.196;2023-04-01T23:43:48;100802.42;;;7.93;75.39
68145;BME280;55400;51.824;-0.196;2023-04-01T23:47:48;100807.84999999999;;;7.89;75.20
68145;BME280;55400;51.824;-0.196;2023-04-01T23:51:49;100811.69;;;7.86;75.20
68145;BME280;55400;51.824;-0.196;2023-04-01T23:55:48;100812.61;;;7.83;75.29
68145;BME280;55400;51.824;-0.196;2023-04-01T23:59:59;100820.42;;;7.86;75.44
